Time;durP1;ratioP1;P1;durP2;ratioP2;P2;SDS_P1;SDS_P2;PMS_P1;PMS_P2;Temp;Humidity;BMP_temperature;BMP_pressure;BME280_temperature;BME280_humidity;BME280_pressure;Samples;Min_cycle;Max_cycle;Signal;HPM_P1;HPM_P2
2022/12/01 00:01:32;;;;;;;44.42;20.60;;;;;;;5.12;100.00;102595.38;5078391;28;20079;-51
2022/12/01 00:04:01;;;;;;;46.17;20.00;;;;;;;5.13;100.00;102595.34;5078202;28;20047;-53
2022/12/01 00:06:30;;;;;;;45.83;20.67;;;;;;;5.11;100.00;102589.28;5078454;28;20476;-58
2022/12/01 00:11:47;;;;;;;41.20;18.83;;;;;;;5.17;100.00;102586.59;5074756;28;20545;-58
2022/12/01 00:14:16;;;;;;;48.80;21.15;;;;;;;5.07;100.00;102588.50;5077243;28;20568;-58
2022/12/01 00:16:44;;;;;;;43.70;20.10;;;;;;;5.10;100.00;102598.03;5072907;28;20400;-57
2022/12/01 00:19:16;;;;;;;45.25;19.58;;;;;;;5.15;100.00;102585.75;5076559;28;20048;-53
2022/12/01 00:21:47;;;;;;;48.25;21.50;;;;;;;5.11;100.00;102596.25;5078346;28;20045;-53
2022/12/01 00:24:15;;;;;;;49.45;20.52;;;;;;;5.18;100.00;102588.34;5078309;28;20045;-53
2022/12/01 00:26:43;;;;;;;48.42;21.60;;;;;;;5.17;100.00;102590.97;5078129;28;20091;-51
2022/12/01 00:29:11;;;;;;;42.72;20.02;;;;;;;5.19;100.00;102587.44;5076114;28;20579;-52
2022/12/01 00:31:39;;;;;;;43.65;21.23;;;;;;;5.18;100.00;102582.25;5075204;28;20076;-51
2022/12/01 00:34:22;;;;;;;44.83;19.98;;;;;;;5.27;100.00;102589.94;5074948;28;20037;-53
2022/12/01 00:36:51;;;;;;;49.95;22.13;;;;;;;5.20;100.00;102586.56;5075118;28;20499;-50
2022/12/01 00:39:19;;;;;;;47.45;20.63;;;;;;;5.25;100.00;102589.97;5074942;28;20381;-52
2022/12/01 00:41:47;;;;;;;48.55;21.63;;;;;;;5.23;100.00;102583.03;5074905;28;20072;-50
2022/12/01 00:44:16;;;;;;;46.80;22.05;;;;;;;5.33;100.00;102586.38;5074754;28;20052;-52
2022/12/01 00:46:44;;;;;;;50.65;22.33;;;;;;;5.30;100.00;102591.63;5073508;28;20385;-53
2022/12/01 00:49:12;;;;;;;49.20;24.08;;;;;;;5.31;100.00;102590.75;5071619;28;20052;-51
2022/12/01 00:51:40;;;;;;;48.10;21.00;;;;;;;5.30;100.00;102586.41;5071728;28;20446;-51
2022/12/01 00:54:10;;;;;;;46.97;21.05;;;;;;;5.25;100.00;102592.56;5074573;28;20045;-51
2022/12/01 00:56:38;;;;;;;53.28;22.98;;;;;;;5.22;100.00;102590.00;5074580;28;20041;-52
2022/12/01 00:59:06;;;;;;;51.80;22.60;;;;;;;5.28;100.00;102591.66;5074616;28;20045;-50
2022/12/01 01:01:34;;;;;;;44.58;22.23;;;;;;;5.33;100.00;102591.59;5074389;28;20044;-53
2022/12/01 01:04:03;;;;;;;49.10;22.17;;;;;;;5.16;100.00;102584.88;5074400;28;20043;-53
2022/12/01 01:06:31;;;;;;;57.45;24.73;;;;;;;5.12;100.00;102584.94;5073315;28;20048;-52
2022/12/01 01:08:59;;;;;;;51.20;23.92;;;;;;;5.15;100.00;102590.97;5070956;28;20096;-53
2022/12/01 01:11:28;;;;;;;49.85;23.23;;;;;;;5.17;100.00;102586.59;5072396;28;20044;-51
2022/12/01 01:13:58;;;;;;;47.65;23.65;;;;;;;5.11;100.00;102586.69;5073969;28;20041;-51
2022/12/01 01:16:26;;;;;;;46.83;22.58;;;;;;;5.14;100.00;102589.25;5074092;28;20048;-52
2022/12/01 01:18:54;;;;;;;51.58;24.60;;;;;;;5.13;100.00;102591.91;5074430;28;20495;-50
2022/12/01 01:21:23;;;;;;;51.60;23.70;;;;;;;5.20;100.00;102589.16;5072947;28;20059;-52
2022/12/01 01:23:52;;;;;;;52.58;23.98;;;;;;;5.05;100.00;102587.63;5074235;28;20491;-54
2022/12/01 01:26:23;;;;;;;50.45;23.30;;;;;;;5.14;100.00;102594.47;5074370;28;20106;-50
2022/12/01 01:28:55;;;;;;;46.80;20.67;;;;;;;5.17;100.00;102599.66;5073758;28;20056;-54
2022/12/01 01:31:26;;;;;;;46.25;21.75;;;;;;;5.12;100.00;102596.25;5074033;28;20044;-53
2022/12/01 01:33:55;;;;;;;45.08;20.63;;;;;;;5.20;100.00;102604.81;5073871;28;20075;-52
2022/12/01 01:36:25;;;;;;;44.53;20.15;;;;;;;5.15;100.00;102603.16;5074161;28;20048;-51
2022/12/01 01:38:54;;;;;;;44.42;22.45;;;;;;;5.14;100.00;102607.53;5074115;28;20044;-51
2022/12/01 01:41:25;;;;;;;45.53;20.88;;;;;;;5.10;100.00;102607.56;5073620;28;20064;-51
2022/12/01 01:43:56;;;;;;;47.85;22.20;;;;;;;5.11;100.00;102610.16;5073352;28;20103;-51
2022/12/01 01:46:27;;;;;;;49.92;22.45;;;;;;;5.13;100.00;102612.78;5073723;28;20048;-50
2022/12/01 01:48:58;;;;;;;46.47;23.13;;;;;;;5.11;100.00;102606.69;5072515;28;20052;-51
2022/12/01 01:51:33;;;;;;;47.38;23.50;;;;;;;4.99;100.00;102611.22;5073701;28;20495;-52
2022/12/01 01:54:06;;;;;;;46.03;22.08;;;;;;;5.02;100.00;102615.53;5073308;28;20032;-49
2022/12/01 01:56:36;;;;;;;48.90;22.63;;;;;;;5.03;100.00;102618.09;5073725;28;20523;-52
2022/12/01 01:59:06;;;;;;;48.78;22.15;;;;;;;5.00;100.00;102602.47;5073502;28;20048;-50
2022/12/01 02:01:34;;;;;;;48.33;22.95;;;;;;;5.04;100.00;102606.75;5073437;28;20483;-53
2022/12/01 02:04:03;;;;;;;47.03;21.92;;;;;;;5.05;100.00;102607.66;5073158;28;20483;-52
2022/12/01 02:06:31;;;;;;;44.80;21.85;;;;;;;5.08;100.00;102608.47;5073147;28;20495;-52
2022/12/01 02:08:59;;;;;;;53.97;23.02;;;;;;;5.01;100.00;102605.97;5073227;28;20060;-52
2022/12/01 02:12:04;;;;;;;52.15;23.98;;;;;;;5.06;100.00;102606.78;5073256;28;20079;-52
2022/12/01 02:14:55;;;;;;;44.72;22.35;;;;;;;5.05;100.00;102605.88;5072902;28;20503;-52
2022/12/01 02:17:32;;;;;;;46.55;21.63;;;;;;;5.05;100.00;102612.88;5072606;28;20040;-49
2022/12/01 02:20:52;;;;;;;48.60;23.70;;;;;;;5.06;100.00;102607.63;5072569;28;20104;-51
2022/12/01 02:23:29;;;;;;;;;;;;;;;5.01;100.00;102605.97;5060940;28;20047;-51
2022/12/01 02:26:16;;;;;;;48.47;21.35;;;;;;;5.01;100.00;102605.97;5072976;28;20379;-52
2022/12/01 02:29:10;;;;;;;51.63;23.33;;;;;;;4.93;100.00;102606.06;5072550;28;20564;-50
2022/12/01 02:31:47;;;;;;;47.88;21.98;;;;;;;4.99;100.00;102602.50;5072708;28;20052;-52
2022/12/01 02:34:24;;;;;;;52.28;24.55;;;;;;;4.95;100.00;102606.03;5072896;28;20044;-49
2022/12/01 02:36:58;;;;;;;52.78;24.10;;;;;;;4.97;100.00;102601.69;5072717;28;20042;-54
2022/12/01 02:39:32;;;;;;;53.00;23.42;;;;;;;5.00;100.00;102604.22;5071349;28;20056;-48
2022/12/01 02:42:06;;;;;;;53.03;24.00;;;;;;;4.98;100.00;102606.00;5072725;28;20072;-50
2022/12/01 02:44:39;;;;;;;52.20;23.40;;;;;;;4.99;100.00;102606.00;5071217;28;20127;-49
2022/12/01 02:47:13;;;;;;;53.80;23.17;;;;;;;4.98;100.00;102608.63;5072584;28;20524;-50
2022/12/01 02:49:47;;;;;;;55.53;23.38;;;;;;;4.99;100.00;102610.31;5072681;28;20048;-53
2022/12/01 02:52:16;;;;;;;48.38;22.10;;;;;;;5.00;100.00;102610.28;5071577;28;20054;-52
2022/12/01 02:54:47;;;;;;;51.03;23.85;;;;;;;5.03;100.00;102612.00;5072177;28;20106;-53
2022/12/01 02:57:17;;;;;;;52.35;23.15;;;;;;;5.08;100.00;102616.31;5072481;28;20106;-52
2022/12/01 02:59:50;;;;;;;50.63;22.38;;;;;;;5.00;100.00;102612.06;5072557;28;20048;-56
2022/12/01 03:02:30;;;;;;;50.92;22.98;;;;;;;5.05;100.00;102610.25;5072269;28;20055;-58
2022/12/01 03:05:03;;;;;;;49.33;23.23;;;;;;;5.12;100.00;102611.88;5072085;28;20048;-58
2022/12/01 03:07:45;;;;;;;51.47;23.98;;;;;;;5.11;100.00;102611.91;5072365;28;20500;-58
2022/12/01 03:10:22;;;;;;;44.58;22.52;;;;;;;5.09;100.00;102611.94;5072254;28;20052;-58
2022/12/01 03:13:04;;;;;;;51.63;21.63;;;;;;;5.00;100.00;102612.06;5069484;28;20515;-58
2022/12/01 03:15:39;;;;;;;49.88;21.15;;;;;;;5.06;100.00;102612.84;5066309;28;20048;-58
2022/12/01 03:18:25;;;;;;;49.33;23.23;;;;;;;5.08;100.00;102620.63;5068734;28;20449;-58
2022/12/01 03:20:59;;;;;;;50.05;24.08;;;;;;;5.07;100.00;102617.19;5068526;28;20109;-58
2022/12/01 03:23:31;;;;;;;50.33;22.85;;;;;;;5.01;100.00;102611.19;5067345;28;20127;-58
2022/12/01 03:26:05;;;;;;;53.05;23.13;;;;;;;4.98;100.00;102619.91;5068321;28;20048;-58
2022/12/01 03:28:39;;;;;;;50.67;22.15;;;;;;;5.05;100.00;102615.47;5069503;28;20114;-58
2022/12/01 03:31:13;;;;;;;51.55;23.40;;;;;;;5.04;100.00;102611.13;5071979;28;20048;-58
2022/12/01 03:33:47;;;;;;;55.50;22.80;;;;;;;5.05;100.00;102605.88;5072032;28;20491;-58
2022/12/01 03:36:22;;;;;;;56.15;23.75;;;;;;;5.14;100.00;102614.47;5072166;28;20106;-58
2022/12/01 03:38:55;;;;;;;49.28;24.27;;;;;;;5.11;100.00;102610.16;5072352;28;20488;-58
2022/12/01 03:41:25;;;;;;;;;;;;;;;5.09;100.00;102606.72;5072465;28;20048;-58
2022/12/01 03:44:00;;;;;;;52.50;21.60;;;;;;;5.00;100.00;102605.09;5071789;28;20386;-58
2022/12/01 03:46:39;;;;;;;49.97;23.25;;;;;;;5.03;100.00;102606.78;5071755;28;20055;-58
2022/12/01 03:49:10;;;;;;;50.47;23.55;;;;;;;5.08;100.00;102605.88;5068588;28;20745;-58
2022/12/01 03:51:45;;;;;;;51.88;22.50;;;;;;;5.06;100.00;102601.56;5068448;28;20044;-58
2022/12/01 03:54:19;;;;;;;53.47;24.42;;;;;;;4.95;100.00;102609.53;5067952;28;20094;-59
2022/12/01 03:56:51;;;;;;;51.40;23.75;;;;;;;5.01;100.00;102606.81;5070926;28;20079;-58
2022/12/01 03:59:22;;;;;;;57.83;23.60;;;;;;;4.99;100.00;102611.22;5067636;28;20041;-58
2022/12/01 04:01:51;;;;;;;61.15;26.17;;;;;;;4.94;100.00;102618.22;5068417;28;20049;-58
2022/12/01 04:04:21;;;;;;;56.17;25.50;;;;;;;5.00;100.00;102619.88;5069539;28;20041;-58
2022/12/01 04:06:50;;;;;;;55.00;23.48;;;;;;;5.03;100.00;102623.31;5072105;28;20123;-58
2022/12/01 04:09:18;;;;;;;53.63;25.27;;;;;;;5.03;100.00;102625.94;5070150;28;20067;-59
2022/12/01 04:14:31;;;;;;;56.97;24.38;;;;;;;5.04;100.00;102622.41;5075209;28;20051;-58
2022/12/01 04:16:59;;;;;;;57.38;24.70;;;;;;;4.98;100.00;102630.34;5073202;28;20072;-58
2022/12/01 04:19:29;;;;;;;54.35;23.63;;;;;;;5.02;100.00;102626.81;5070883;28;20074;-58
2022/12/01 04:21:57;;;;;;;57.10;24.52;;;;;;;5.03;100.00;102625.94;5072247;28;20052;-58
2022/12/01 04:24:25;;;;;;;50.30;22.63;;;;;;;5.00;100.00;102619.88;5071085;28;20041;-58
2022/12/01 04:26:53;;;;;;;54.65;24.35;;;;;;;4.96;100.00;102619.03;5071947;28;20055;-58
2022/12/01 04:29:22;;;;;;;47.08;21.42;;;;;;;5.02;100.00;102620.72;5070595;28;20056;-58
2022/12/01 04:31:50;;;;;;;47.88;23.17;;;;;;;5.00;100.00;102615.50;5069757;28;20048;-58
2022/12/01 04:34:18;;;;;;;53.33;23.58;;;;;;;5.04;100.00;102619.81;5071975;28;20529;-58
2022/12/01 04:36:47;;;;;;;53.47;23.35;;;;;;;4.99;100.00;102620.75;5074398;28;20527;-58
2022/12/01 04:39:16;;;;;;;54.42;22.58;;;;;;;4.98;100.00;102624.28;5071235;28;20049;-58
2022/12/01 04:41:44;;;;;;;49.85;22.88;;;;;;;4.98;100.00;102619.06;5071612;28;20083;-58
2022/12/01 04:44:12;;;;;;;52.10;23.92;;;;;;;5.04;100.00;102621.56;5073511;28;20043;-58
2022/12/01 04:46:40;;;;;;;53.65;23.83;;;;;;;4.95;100.00;102614.75;5071299;28;20105;-58
2022/12/01 04:49:09;;;;;;;50.42;22.50;;;;;;;4.96;100.00;102613.81;5071496;28;20442;-58
2022/12/01 04:51:37;;;;;;;50.97;23.17;;;;;;;5.00;100.00;102617.28;5071080;28;20053;-58
2022/12/01 04:54:06;;;;;;;54.55;22.55;;;;;;;4.99;100.00;102624.25;5071021;28;20127;-58
2022/12/01 04:56:34;;;;;;;53.22;24.25;;;;;;;4.95;100.00;102612.13;5070146;28;20503;-58
2022/12/01 04:59:02;;;;;;;53.40;24.13;;;;;;;4.94;100.00;102618.22;5071326;28;20059;-58
2022/12/01 05:01:31;;;;;;;50.90;23.90;;;;;;;4.92;100.00;102614.75;5073691;28;20052;-59
2022/12/01 05:03:59;;;;;;;51.72;23.50;;;;;;;4.85;100.00;102619.22;5074362;28;20045;-58
2022/12/01 05:06:29;;;;;;;50.25;24.05;;;;;;;4.89;100.00;102606.97;5074387;28;20044;-58
2022/12/01 05:09:00;;;;;;;47.45;22.50;;;;;;;4.88;100.00;102613.06;5072940;28;20102;-58
2022/12/01 05:11:31;;;;;;;50.80;24.15;;;;;;;4.87;100.00;102614.81;5070359;28;20447;-58
2022/12/01 05:13:59;;;;;;;51.13;24.63;;;;;;;4.86;100.00;102612.25;5070534;28;20549;-58
2022/12/01 05:16:30;;;;;;;52.53;24.27;;;;;;;4.87;100.00;102607.00;5068749;28;20051;-58
2022/12/01 05:21:49;;;;;;;50.25;23.58;;;;;;;4.80;100.00;102604.50;5071021;28;20052;-49
2022/12/01 05:24:18;;;;;;;44.78;22.05;;;;;;;4.86;100.00;102615.69;5072742;28;20487;-51
2022/12/01 05:26:49;;;;;;;47.63;22.75;;;;;;;4.80;100.00;102613.19;5073998;28;20101;-52
2022/12/01 05:29:17;;;;;;;45.85;22.30;;;;;;;4.79;100.00;102616.66;5073869;28;20125;-53
2022/12/01 05:31:46;;;;;;;42.25;20.88;;;;;;;4.79;100.00;102608.84;5073837;28;20503;-50
2022/12/01 05:34:14;;;;;;;47.13;22.63;;;;;;;4.88;100.00;102619.16;5071845;28;20044;-52
2022/12/01 05:36:42;;;;;;;47.40;21.05;;;;;;;4.87;100.00;102620.03;5070772;28;20094;-53
2022/12/01 05:39:10;;;;;;;47.25;21.10;;;;;;;4.85;100.00;102616.59;5073662;28;20048;-58
2022/12/01 05:41:38;;;;;;;44.95;21.77;;;;;;;4.85;100.00;102627.03;5073779;28;20048;-58
2022/12/01 05:44:08;;;;;;;42.25;22.05;;;;;;;4.97;100.00;102625.16;5073756;28;20487;-58
2022/12/01 05:46:36;;;;;;;42.47;21.42;;;;;;;4.99;100.00;102631.19;5071410;28;20048;-58
2022/12/01 05:49:05;;;;;;;41.75;20.38;;;;;;;4.90;100.00;102626.97;5070724;28;20155;-58
2022/12/01 05:51:33;;;;;;;38.80;20.13;;;;;;;4.96;100.00;102626.03;5069770;28;20053;-58
2022/12/01 05:54:02;;;;;;;41.47;21.35;;;;;;;4.94;100.00;102628.66;5073623;28;20127;-53
2022/12/01 05:56:30;;;;;;;40.20;20.17;;;;;;;4.98;100.00;102629.47;5069416;28;20487;-58
2022/12/01 05:58:58;;;;;;;40.85;21.33;;;;;;;4.89;100.00;102628.72;5069361;28;20106;-58
2022/12/01 06:01:28;;;;;;;44.53;21.17;;;;;;;4.88;100.00;102641.75;5067648;28;20106;-58
2022/12/01 06:03:56;;;;;;;41.70;20.92;;;;;;;4.83;100.00;102643.56;5070171;28;20073;-58
2022/12/01 06:06:24;;;;;;;47.20;21.77;;;;;;;4.81;100.00;102640.97;5069490;28;20083;-58
2022/12/01 06:08:52;;;;;;;40.95;21.48;;;;;;;4.80;100.00;102631.44;5070100;28;20052;-58
2022/12/01 06:11:20;;;;;;;45.30;21.50;;;;;;;4.77;100.00;102636.66;5069167;28;20056;-57
2022/12/01 06:13:48;;;;;;;48.00;22.42;;;;;;;4.75;100.00;102638.44;5069531;28;20128;-58
2022/12/01 06:16:16;;;;;;;43.88;23.60;;;;;;;4.67;100.00;102640.28;5070274;28;20044;-58
2022/12/01 06:18:46;;;;;;;43.15;21.60;;;;;;;4.68;100.00;102648.09;5068338;28;20056;-58
2022/12/01 06:21:14;;;;;;;44.95;21.50;;;;;;;4.74;100.00;102642.81;5070507;28;20047;-58
2022/12/01 06:23:42;;;;;;;46.67;23.42;;;;;;;4.70;100.00;102650.66;5071124;28;20070;-58
2022/12/01 06:26:10;;;;;;;45.95;21.92;;;;;;;4.72;100.00;102641.94;5068746;28;20074;-58
2022/12/01 06:28:38;;;;;;;48.78;24.38;;;;;;;4.63;100.00;102646.41;5070613;28;20052;-58
2022/12/01 06:31:06;;;;;;;46.28;23.65;;;;;;;4.64;100.00;102649.00;5067412;28;20055;-57
2022/12/01 06:33:34;;;;;;;50.20;24.02;;;;;;;4.62;100.00;102653.38;5067784;28;20044;-58
2022/12/01 06:36:05;;;;;;;49.97;25.30;;;;;;;4.59;100.00;102650.78;5069745;28;20041;-58
2022/12/01 06:38:36;;;;;;;54.47;26.02;;;;;;;4.52;100.00;102647.38;5072310;28;20507;-58
2022/12/01 06:41:05;;;;;;;53.88;24.95;;;;;;;4.53;100.00;102649.13;5072326;28;20101;-58
2022/12/01 06:43:35;;;;;;;58.50;26.55;;;;;;;4.46;100.00;102649.19;5072037;28;20403;-58
2022/12/01 06:46:04;;;;;;;55.60;24.58;;;;;;;4.54;100.00;102653.47;5070447;28;20048;-58
2022/12/01 06:48:33;;;;;;;55.72;25.42;;;;;;;4.56;100.00;102651.69;5068916;28;20123;-58
2022/12/01 06:51:01;;;;;;;54.30;25.63;;;;;;;4.59;100.00;102658.59;5071075;28;20086;-58
2022/12/01 06:53:31;;;;;;;56.83;26.67;;;;;;;4.59;100.00;102661.22;5071053;28;20083;-58
2022/12/01 06:56:00;;;;;;;54.75;26.23;;;;;;;4.56;100.00;102656.03;5072030;28;20067;-52
2022/12/01 06:58:28;;;;;;;55.28;24.52;;;;;;;4.51;100.00;102658.72;5072267;28;20048;-58
2022/12/01 07:00:57;;;;;;;57.90;25.55;;;;;;;4.60;100.00;102668.16;5072457;28;20048;-53
2022/12/01 07:03:26;;;;;;;52.85;24.35;;;;;;;4.66;100.00;102662.00;5072954;28;20044;-52
2022/12/01 07:05:59;;;;;;;53.47;25.20;;;;;;;4.69;100.00;102667.19;5072271;28;20499;-52
2022/12/01 07:08:28;;;;;;;58.80;25.20;;;;;;;4.61;100.00;102669.88;5072391;28;20049;-53
2022/12/01 07:10:59;;;;;;;53.58;25.73;;;;;;;4.54;100.00;102661.28;5072356;28;20518;-53
2022/12/01 07:13:28;;;;;;;52.05;26.27;;;;;;;4.59;100.00;102666.41;5072168;28;20453;-52
2022/12/01 07:16:01;;;;;;;58.38;27.42;;;;;;;4.61;100.00;102671.63;5071643;28;20052;-52
2022/12/01 07:18:31;;;;;;;53.92;24.77;;;;;;;4.56;100.00;102669.91;5071704;28;20117;-53
2022/12/01 07:21:00;;;;;;;53.08;24.65;;;;;;;4.60;100.00;102672.50;5071851;28;20060;-50
2022/12/01 07:23:30;;;;;;;56.45;25.70;;;;;;;4.63;100.00;102677.69;5072098;28;20060;-50
2022/12/01 07:26:00;;;;;;;51.72;24.08;;;;;;;4.62;100.00;102678.56;5072137;28;20055;-49
2022/12/01 07:28:29;;;;;;;55.00;26.02;;;;;;;4.61;100.00;102682.91;5072018;28;20523;-52
2022/12/01 07:31:02;;;;;;;57.28;25.05;;;;;;;4.63;100.00;102680.28;5070657;28;20045;-54
2022/12/01 07:33:30;;;;;;;54.22;25.63;;;;;;;4.64;100.00;102682.03;5071941;28;20496;-52
2022/12/01 07:35:59;;;;;;;53.75;24.13;;;;;;;4.60;100.00;102680.34;5072307;28;20057;-52
2022/12/01 07:38:28;;;;;;;52.35;25.90;;;;;;;4.56;100.00;102685.56;5071959;28;20044;-49
2022/12/01 07:41:03;;;;;;;53.00;25.30;;;;;;;4.69;100.00;102691.53;5075395;28;20128;-53
2022/12/01 07:43:32;;;;;;;58.90;25.55;;;;;;;4.65;100.00;102688.94;5074476;28;20121;-58
2022/12/01 07:46:08;;;;;;;59.45;25.40;;;;;;;4.64;100.00;102684.63;5075889;28;20101;-58
2022/12/01 07:48:38;;;;;;;60.03;26.88;;;;;;;4.61;100.00;102687.25;5076082;28;20522;-58
2022/12/01 07:51:07;;;;;;;84.25;29.08;;;;;;;4.60;100.00;102683.78;5076050;28;20090;-57
2022/12/01 07:53:36;;;;;;;66.05;26.45;;;;;;;4.62;100.00;102686.38;5075850;28;20049;-58
2022/12/01 07:56:06;;;;;;;64.00;27.05;;;;;;;4.60;100.00;102685.56;5073209;28;20063;-58
2022/12/01 07:58:36;;;;;;;59.45;25.48;;;;;;;4.61;100.00;102689.84;5072068;28;20064;-58
2022/12/01 08:01:08;;;;;;;63.90;26.77;;;;;;;4.64;100.00;102687.25;5075223;28;20458;-52
2022/12/01 08:03:37;;;;;;;64.60;27.55;;;;;;;4.62;100.00;102689.88;5076229;28;20098;-49
2022/12/01 08:06:06;;;;;;;61.45;26.42;;;;;;;4.72;100.00;102693.22;5075550;28;20127;-53
2022/12/01 08:08:36;;;;;;;64.97;27.75;;;;;;;4.69;100.00;102699.34;5075427;28;20106;-49
2022/12/01 08:11:07;;;;;;;65.55;27.67;;;;;;;4.73;100.00;102692.31;5075503;28;20564;-58
2022/12/01 08:13:35;;;;;;;61.60;26.45;;;;;;;4.72;100.00;102690.63;5075430;28;20094;-58
2022/12/01 08:16:04;;;;;;;61.90;27.52;;;;;;;4.77;100.00;102694.03;5074563;28;20044;-58
2022/12/01 08:18:34;;;;;;;59.92;24.77;;;;;;;4.77;100.00;102694.03;5071833;28;20060;-57
2022/12/01 08:21:03;;;;;;;64.50;26.83;;;;;;;4.78;100.00;102697.50;5072037;28;20674;-58
2022/12/01 08:23:31;;;;;;;62.97;26.35;;;;;;;4.78;100.00;102705.34;5071066;28;20123;-58
2022/12/01 08:26:01;;;;;;;62.30;26.85;;;;;;;4.78;100.00;102698.38;5071681;28;20511;-58
2022/12/01 08:28:32;;;;;;;66.57;27.35;;;;;;;4.84;100.00;102703.53;5072570;28;20131;-53
2022/12/01 08:31:08;;;;;;;63.03;27.02;;;;;;;4.87;100.00;102707.84;5075071;28;20056;-53
2022/12/01 08:33:37;;;;;;;68.03;26.73;;;;;;;4.84;100.00;102707.84;5075253;28;20515;-49
2022/12/01 08:36:06;;;;;;;61.72;26.73;;;;;;;4.81;100.00;102700.06;5075075;28;20044;-52
2022/12/01 08:38:34;;;;;;;62.25;27.00;;;;;;;4.89;100.00;102700.84;5075193;28;20049;-50
2022/12/01 08:41:05;;;;;;;64.50;25.88;;;;;;;4.88;100.00;102712.16;5075009;28;20132;-53
2022/12/01 08:43:38;;;;;;;66.85;27.17;;;;;;;4.86;100.00;102713.94;5074943;28;20047;-53
2022/12/01 08:46:27;;;;;;;63.05;25.67;;;;;;;4.91;100.00;102715.59;5074762;28;20068;-54
2022/12/01 08:48:56;;;;;;;66.00;27.33;;;;;;;4.97;100.00;102711.19;5071674;28;20585;-54
2022/12/01 08:51:25;;;;;;;66.47;27.40;;;;;;;5.01;100.00;102712.88;5069797;28;20044;-54
2022/12/01 08:53:55;;;;;;;63.20;26.33;;;;;;;5.03;100.00;102712.00;5072864;28;20059;-49
2022/12/01 08:56:25;;;;;;;64.70;26.63;;;;;;;5.05;100.00;102717.19;5069942;28;20189;-58
2022/12/01 08:58:55;;;;;;;61.33;25.95;;;;;;;5.06;100.00;102713.69;5074022;28;20048;-58
2022/12/01 09:01:24;;;;;;;62.55;25.75;;;;;;;5.08;100.00;102715.41;5074538;28;20036;-58
2022/12/01 09:04:04;;;;;;;55.13;25.52;;;;;;;5.15;100.00;102710.97;5074637;28;20072;-58
2022/12/01 09:06:34;;;;;;;62.67;26.00;;;;;;;5.17;100.00;102714.41;5074237;28;20135;-52
2022/12/01 09:09:03;;;;;;;64.07;26.35;;;;;;;5.19;100.00;102717.00;5074290;28;20404;-52
2022/12/01 09:11:31;;;;;;;63.92;26.35;;;;;;;5.16;100.00;102717.91;5074461;28;20048;-51
2022/12/01 09:14:01;;;;;;;59.95;26.30;;;;;;;5.21;100.00;102716.09;5074356;28;20083;-50
2022/12/01 09:16:30;;;;;;;79.60;27.95;;;;;;;5.26;100.00;102718.66;5073829;28;20691;-54
2022/12/01 09:18:58;;;;;;;58.95;26.65;;;;;;;5.20;100.00;102713.53;5072365;28;20052;-52
2022/12/01 09:21:30;;;;;;;65.22;26.73;;;;;;;5.25;100.00;102717.78;5070405;28;20177;-51
2022/12/01 09:23:58;;;;;;;59.90;26.67;;;;;;;5.34;100.00;102708.97;5070947;28;20357;-51
2022/12/01 09:26:27;;;;;;;60.13;25.83;;;;;;;5.28;100.00;102711.69;5071085;28;20139;-52
2022/12/01 09:28:57;;;;;;;64.53;25.77;;;;;;;5.39;100.00;102715.00;5074001;28;20106;-50
2022/12/01 09:31:27;;;;;;;59.30;25.05;;;;;;;5.43;100.00;102715.81;5074129;28;20044;-53
2022/12/01 09:33:56;;;;;;;63.38;27.20;;;;;;;5.36;100.00;102714.19;5073868;28;20102;-51
2022/12/01 09:36:25;;;;;;;60.47;25.13;;;;;;;5.43;100.00;102708.00;5073484;28;20058;-51
2022/12/01 09:38:53;;;;;;;70.72;27.27;;;;;;;5.48;100.00;102711.41;5073164;28;20044;-50
2022/12/01 09:41:25;;;;;;;111.63;29.95;;;;;;;5.51;100.00;102724.41;5073219;28;20052;-50
2022/12/01 09:43:59;;;;;;;54.70;24.53;;;;;;;5.51;100.00;102720.97;5073760;28;20098;-51
2022/12/01 09:46:35;;;;;;;51.60;23.58;;;;;;;5.50;100.00;102720.06;5073688;28;20078;-53
2022/12/01 09:49:06;;;;;;;51.90;23.40;;;;;;;5.55;100.00;102722.63;5073809;28;20044;-50
2022/12/01 09:51:36;;;;;;;56.35;23.75;;;;;;;5.55;100.00;102718.28;5073702;28;20056;-50
2022/12/01 09:54:04;;;;;;;61.08;25.60;;;;;;;5.57;100.00;102724.31;5073669;28;20060;-50
2022/12/01 09:56:40;;;;;;;59.50;26.50;;;;;;;5.56;100.00;102717.38;5073491;28;20052;-51
2022/12/01 09:59:17;;;;;;;54.03;26.70;;;;;;;5.62;100.00;102719.03;5073269;28;20045;-58
2022/12/01 10:01:50;;;;;;;84.80;30.38;;;;;;;5.68;100.00;102718.94;5073277;28;20045;-51
2022/12/01 10:04:25;;;;;;;60.30;27.13;;;;;;;5.70;100.00;102711.97;5073219;28;20147;-50
2022/12/01 10:07:00;;;;;;;57.30;25.92;;;;;;;5.72;100.00;102704.94;5073206;28;20048;-58
2022/12/01 10:09:36;;;;;;;61.80;26.70;;;;;;;5.72;100.00;102706.72;5070670;28;20044;-58
2022/12/01 10:12:13;;;;;;;52.97;24.58;;;;;;;5.67;100.00;102703.31;5069936;28;20499;-58
2022/12/01 10:14:43;;;;;;;55.42;26.23;;;;;;;5.62;100.00;102702.50;5070618;28;20067;-58
2022/12/01 10:17:21;;;;;;;57.00;27.13;;;;;;;5.57;100.00;102703.44;5068952;28;20052;-58
2022/12/01 10:19:59;;;;;;;55.53;25.25;;;;;;;5.56;100.00;102696.50;5069442;28;20568;-51
2022/12/01 10:22:52;;;;;;;57.95;25.80;;;;;;;5.68;100.00;102692.84;5069466;28;20079;-50
2022/12/01 10:25:23;;;;;;;55.38;25.55;;;;;;;5.68;100.00;102697.19;5069254;28;20548;-50
2022/12/01 10:28:44;;;;;;;52.13;23.73;;;;;;;5.71;100.00;102698.03;5069552;28;20048;-50
2022/12/01 10:31:19;;;;;;;54.55;23.85;;;;;;;5.71;100.00;102695.41;5072019;28;20076;-57
2022/12/01 10:34:01;;;;;;;55.08;24.65;;;;;;;5.82;100.00;102683.94;5069123;28;20385;-53
2022/12/01 10:36:33;;;;;;;49.03;25.30;;;;;;;5.92;100.00;102682.91;5071212;28;20094;-54
2022/12/01 10:39:03;;;;;;;54.05;23.95;;;;;;;6.01;100.00;102684.53;5072598;28;20038;-58
2022/12/01 10:41:35;;;;;;;46.97;22.35;;;;;;;6.08;100.00;102681.81;5069005;28;20139;-58
2022/12/01 10:44:05;;;;;;;52.08;24.63;;;;;;;6.14;100.00;102688.66;5069110;28;20053;-50
2022/12/01 10:46:41;;;;;;;46.15;23.42;;;;;;;6.29;100.00;102674.47;5072312;28;20098;-58
2022/12/01 10:49:12;;;;;;;46.42;22.17;;;;;;;6.35;100.00;102679.56;5072196;28;20041;-50
2022/12/01 10:51:50;;;;;;;48.33;23.80;;;;;;;6.38;100.00;102683.88;5069068;28;20044;-51
2022/12/01 10:54:19;;;;;;;47.72;24.42;;;;;;;6.28;100.00;102679.72;5068458;28;20052;-58
2022/12/01 10:56:48;;;;;;;49.75;25.08;;;;;;;6.38;100.00;102669.09;5068716;28;20438;-58
2022/12/01 10:59:24;;;;;;;49.90;24.02;;;;;;;6.40;100.00;102674.28;5068363;28;20044;-58
2022/12/01 11:01:54;;;;;;;61.15;24.35;;;;;;;6.44;100.00;102678.56;5067907;28;20483;-58
2022/12/01 11:04:36;;;;;;;48.30;23.80;;;;;;;6.46;100.00;102683.75;5068734;28;20079;-50
2022/12/01 11:07:04;;;;;;;43.83;23.38;;;;;;;6.34;100.00;102687.44;5070293;28;20360;-53
2022/12/01 11:09:33;;;;;;;49.20;23.15;;;;;;;6.29;100.00;102684.94;5072296;28;20499;-53
2022/12/01 11:12:03;;;;;;;49.78;24.10;;;;;;;6.24;100.00;102681.53;5070564;28;20072;-52
2022/12/01 11:14:43;;;;;;;52.67;24.60;;;;;;;6.35;100.00;102679.56;5067306;28;20129;-52
2022/12/01 11:17:23;;;;;;;88.55;26.75;;;;;;;6.38;100.00;102676.03;5072487;28;20047;-52
2022/12/01 11:20:16;;;;;;;55.40;24.38;;;;;;;6.29;100.00;102671.84;5072267;28;20052;-53
2022/12/01 11:22:44;;;;;;;44.20;22.25;;;;;;;6.33;100.00;102667.44;5070684;28;20101;-53
2022/12/01 11:25:20;;;;;;;49.70;23.13;;;;;;;6.31;100.00;102674.44;5071054;28;20095;-59
2022/12/01 11:27:52;;;;;;;45.22;23.10;;;;;;;6.30;100.00;102673.59;5069351;28;20048;-58
2022/12/01 11:30:23;;;;;;;46.83;23.33;;;;;;;6.34;100.00;102670.03;5069793;28;20052;-59
2022/12/01 11:32:54;;;;;;;45.88;21.80;;;;;;;6.55;100.00;102663.53;5072273;28;20048;-58
2022/12/01 11:35:26;;;;;;;69.10;26.02;;;;;;;6.64;100.00;102662.50;5072133;28;20499;-58
2022/12/01 11:37:55;;;;;;;44.00;22.10;;;;;;;6.57;100.00;102660.88;5071739;28;20403;-58